Time;durP1;ratioP1;P1;durP2;ratioP2;P2;SDS_P1;SDS_P2;PMS_P1;PMS_P2;Temp;Humidity;BMP_temperature;BMP_pressure;BME280_temperature;BME280_humidity;BME280_pressure;Samples;Min_cycle;Max_cycle;Signal;HPM_P1;HPM_P2
2023/11/23 00:00:27;;;;;;;1.95;1.52;;;21.60;91.20;;;;;;5025346;28;20500;-75
2023/11/23 00:02:54;;;;;;;2.33;1.80;;;21.60;91.10;;;;;;5027595;28;20192;-76
2023/11/23 00:05:22;;;;;;;3.50;2.03;;;21.60;91.10;;;;;;5032005;28;20510;-74
2023/11/23 00:07:49;;;;;;;2.57;2.00;;;21.50;91.10;;;;;;5028466;28;20505;-78
2023/11/23 00:10:16;;;;;;;2.40;1.67;;;21.50;91.10;;;;;;5007494;28;20466;-73
2023/11/23 00:12:43;;;;;;;2.23;2.03;;;21.50;91.10;;;;;;5020740;28;20970;-77
2023/11/23 00:15:11;;;;;;;2.95;1.83;;;21.50;91.10;;;;;;5021566;28;20520;-74
2023/11/23 00:17:38;;;;;;;2.50;1.70;;;21.50;91.10;;;;;;5022759;28;20679;-76
2023/11/23 00:20:07;;;;;;;2.37;1.80;;;21.50;91.10;;;;;;5022335;28;20462;-76
2023/11/23 00:22:36;;;;;;;2.47;2.00;;;21.50;91.10;;;;;;5027513;28;20458;-75
2023/11/23 00:25:04;;;;;;;4.40;2.10;;;21.50;91.10;;;;;;5033449;28;20493;-71
2023/11/23 00:27:31;;;;;;;2.10;1.77;;;21.40;91.00;;;;;;5019324;28;23283;-74
2023/11/23 00:29:58;;;;;;;4.43;2.13;;;21.40;91.00;;;;;;5029030;28;20507;-75
2023/11/23 00:32:25;;;;;;;2.50;2.30;;;21.40;91.00;;;;;;5026179;28;20457;-75
2023/11/23 00:34:52;;;;;;;1.90;1.70;;;21.40;91.00;;;;;;5028680;28;20492;-75
2023/11/23 00:37:19;;;;;;;2.00;1.70;;;21.40;91.00;;;;;;5022928;28;20469;-71
2023/11/23 00:39:47;;;;;;;1.90;1.73;;;21.40;91.00;;;;;;5023648;28;20548;-76
2023/11/23 00:42:13;;;;;;;1.73;1.50;;;21.40;91.00;;;;;;5023900;28;20459;-76
2023/11/23 00:44:40;;;;;;;4.10;2.10;;;21.40;91.00;;;;;;5024275;28;20459;-71
2023/11/23 00:47:07;;;;;;;2.37;2.00;;;21.40;91.00;;;;;;5030040;28;20470;-72
2023/11/23 00:49:34;;;;;;;2.57;1.50;;;21.40;91.10;;;;;;5024768;28;20464;-72
2023/11/23 00:52:01;;;;;;;2.03;1.45;;;21.40;91.10;;;;;;5023550;28;20464;-71
2023/11/23 00:54:28;;;;;;;2.30;1.95;;;21.40;91.10;;;;;;5019723;28;20204;-72
2023/11/23 00:56:56;;;;;;;2.58;1.60;;;21.40;91.10;;;;;;5023991;28;20199;-75
2023/11/23 00:59:23;;;;;;;1.70;1.60;;;21.30;91.10;;;;;;5024142;28;20204;-72
2023/11/23 01:01:50;;;;;;;2.30;2.10;;;21.30;91.10;;;;;;5023693;28;20671;-72
2023/11/23 01:04:16;;;;;;;2.10;1.80;;;21.30;91.00;;;;;;5022582;28;20473;-75
2023/11/23 01:06:43;;;;;;;2.30;2.10;;;21.30;91.10;;;;;;5021079;28;20470;-75
2023/11/23 01:09:10;;;;;;;2.30;1.60;;;21.30;91.00;;;;;;5022522;28;20904;-75
2023/11/23 01:11:37;;;;;;;3.60;2.23;;;21.30;91.00;;;;;;5027386;28;21285;-76
2023/11/23 01:14:07;;;;;;;2.40;1.85;;;21.30;91.10;;;;;;5022536;28;20455;-77
2023/11/23 01:16:34;;;;;;;2.53;1.70;;;21.30;91.10;;;;;;5022360;28;20274;-77
2023/11/23 01:19:01;;;;;;;2.00;1.60;;;21.30;91.10;;;;;;5022185;28;20961;-73
2023/11/23 01:21:28;;;;;;;2.50;1.70;;;21.30;91.10;;;;;;5022434;28;20203;-76
2023/11/23 01:23:55;;;;;;;2.27;1.63;;;21.30;91.10;;;;;;5021089;28;20872;-73
2023/11/23 01:26:22;;;;;;;2.10;1.73;;;21.30;91.10;;;;;;5016873;28;20470;-70
2023/11/23 01:28:48;;;;;;;1.80;1.60;;;21.30;91.10;;;;;;5023563;28;20465;-72
2023/11/23 01:31:16;;;;;;;2.42;1.85;;;21.20;91.00;;;;;;5021204;28;20464;-72
2023/11/23 01:33:43;;;;;;;1.80;1.70;;;21.30;91.10;;;;;;5023618;28;20218;-73
2023/11/23 01:36:10;;;;;;;3.75;1.98;;;21.20;91.10;;;;;;5024005;28;20462;-71
2023/11/23 01:38:37;;;;;;;1.80;1.40;;;21.20;91.10;;;;;;5022330;28;20210;-73
2023/11/23 01:41:03;;;;;;;2.03;1.60;;;21.20;91.00;;;;;;5021361;28;20489;-74
2023/11/23 01:43:31;;;;;;;1.57;1.20;;;21.20;91.00;;;;;;5025293;28;20463;-71
2023/11/23 01:45:58;;;;;;;2.17;1.50;;;21.20;91.00;;;;;;5023651;28;20481;-76
2023/11/23 01:48:28;;;;;;;2.20;1.75;;;21.20;91.10;;;;;;5023382;28;20489;-75
2023/11/23 01:50:56;;;;;;;2.28;1.80;;;21.20;91.00;;;;;;5023243;28;20187;-73
2023/11/23 01:53:23;;;;;;;2.80;1.75;;;21.20;91.00;;;;;;5024846;28;20195;-72
2023/11/23 01:55:50;;;;;;;1.80;1.60;;;21.20;91.00;;;;;;5024050;28;20230;-75
2023/11/23 01:58:19;;;;;;;2.95;1.70;;;21.20;91.10;;;;;;5023463;28;20202;-73
2023/11/23 02:00:50;;;;;;;1.57;1.40;;;21.20;91.10;;;;;;5022161;28;20202;-73
2023/11/23 02:03:17;;;;;;;1.88;1.67;;;21.20;91.00;;;;;;5026185;28;20545;-77
2023/11/23 02:05:46;;;;;;;1.85;1.75;;;21.20;91.10;;;;;;5028320;28;20212;-73
2023/11/23 02:08:13;;;;;;;1.73;1.63;;;21.10;91.00;;;;;;5030242;28;20207;-77
2023/11/23 02:10:40;;;;;;;3.05;1.50;;;21.10;91.00;;;;;;5025140;28;20202;-74
2023/11/23 02:13:07;;;;;;;2.13;1.95;;;21.10;91.00;;;;;;5025169;28;20271;-74
2023/11/23 02:15:35;;;;;;;3.90;1.90;;;21.10;91.00;;;;;;5022908;28;20318;-72
2023/11/23 02:18:02;;;;;;;1.73;1.47;;;21.10;91.00;;;;;;5021587;28;20200;-76
2023/11/23 02:20:29;;;;;;;2.33;1.60;;;21.10;91.00;;;;;;5024277;28;20556;-74
2023/11/23 02:22:59;;;;;;;2.13;1.65;;;21.10;91.00;;;;;;5024339;28;20216;-73
2023/11/23 02:25:27;;;;;;;2.70;1.52;;;21.10;91.00;;;;;;5027830;28;20301;-76
2023/11/23 02:27:54;;;;;;;1.67;1.50;;;21.10;91.00;;;;;;5025568;28;20220;-75
2023/11/23 02:30:21;;;;;;;1.98;1.50;;;21.10;91.00;;;;;;5026758;28;20207;-76
2023/11/23 02:32:49;;;;;;;2.25;1.90;;;21.10;91.00;;;;;;5023668;28;20199;-72
2023/11/23 02:35:18;;;;;;;1.90;1.80;;;21.10;91.00;;;;;;5023605;28;20718;-72
2023/11/23 02:37:45;;;;;;;2.03;1.63;;;21.10;91.00;;;;;;5021010;28;20210;-75
2023/11/23 02:40:12;;;;;;;2.75;1.70;;;21.10;91.00;;;;;;5027497;28;20684;-74
2023/11/23 02:42:40;;;;;;;2.30;1.90;;;21.10;91.40;;;;;;5027156;28;20196;-76
2023/11/23 02:45:08;;;;;;;2.05;1.58;;;21.10;91.00;;;;;;5030144;28;20192;-76
2023/11/23 02:47:35;;;;;;;1.60;1.50;;;21.10;91.00;;;;;;5028960;28;20216;-70
2023/11/23 02:50:02;;;;;;;3.15;1.65;;;21.10;91.00;;;;;;5026900;28;20210;-76
2023/11/23 02:52:28;;;;;;;2.10;1.90;;;21.00;90.90;;;;;;5026116;28;20215;-75
2023/11/23 02:54:55;;;;;;;2.03;1.67;;;21.00;91.30;;;;;;5036011;28;20458;-75
2023/11/23 02:57:22;;;;;;;1.70;1.52;;;21.00;91.00;;;;;;5029153;28;21105;-72
2023/11/23 02:59:51;;;;;;;1.90;1.58;;;21.00;91.00;;;;;;5029330;28;20199;-74
2023/11/23 03:02:18;;;;;;;2.10;1.45;;;21.00;91.00;;;;;;5034152;28;20206;-71
2023/11/23 03:04:44;;;;;;;2.65;1.75;;;21.00;91.00;;;;;;5035913;28;20214;-75
2023/11/23 03:07:11;;;;;;;2.15;1.30;;;21.00;91.00;;;;;;5027615;28;20231;-74
2023/11/23 03:09:38;;;;;;;2.00;1.80;;;21.00;91.00;;;;;;5024598;28;20195;-71
2023/11/23 03:12:05;;;;;;;1.95;1.75;;;21.00;91.00;;;;;;5026338;28;20462;-74
2023/11/23 03:14:33;;;;;;;2.50;1.70;;;21.00;91.00;;;;;;5029215;28;20210;-76
2023/11/23 03:17:01;;;;;;;2.63;2.10;;;21.00;91.00;;;;;;5031357;28;20465;-77
2023/11/23 03:19:27;;;;;;;1.90;1.50;;;21.00;91.00;;;;;;5031562;28;20286;-70
2023/11/23 03:21:54;;;;;;;1.90;1.40;;;21.00;91.00;;;;;;5038233;28;20195;-71
2023/11/23 03:24:21;;;;;;;1.73;1.50;;;21.00;91.00;;;;;;5036409;28;20195;-76
2023/11/23 03:26:47;;;;;;;1.92;1.40;;;21.00;91.00;;;;;;5032955;28;20478;-74
2023/11/23 03:29:14;;;;;;;2.37;1.77;;;21.00;91.00;;;;;;5031357;28;20193;-73
2023/11/23 03:31:41;;;;;;;1.35;1.25;;;21.00;90.90;;;;;;5034523;28;20453;-75
2023/11/23 03:34:09;;;;;;;2.67;1.80;;;21.00;91.00;;;;;;5034230;28;20233;-75
2023/11/23 03:36:36;;;;;;;2.10;1.63;;;21.00;91.00;;;;;;5030649;28;20477;-74
2023/11/23 03:39:02;;;;;;;2.17;1.40;;;21.00;91.00;;;;;;5032510;28;20196;-72
2023/11/23 03:41:29;;;;;;;2.40;1.80;;;21.00;91.00;;;;;;5031330;28;20647;-74
2023/11/23 03:43:57;;;;;;;1.80;1.60;;;21.00;91.00;;;;;;5035162;28;20461;-71
2023/11/23 03:46:24;;;;;;;2.13;1.83;;;21.00;91.00;;;;;;5031520;28;20208;-75
2023/11/23 03:48:51;;;;;;;2.03;1.48;;;21.00;91.00;;;;;;5024934;28;20299;-74
2023/11/23 03:51:19;;;;;;;1.90;1.50;;;20.90;90.90;;;;;;5029560;28;20197;-73
2023/11/23 03:53:46;;;;;;;2.30;1.43;;;20.90;90.90;;;;;;5030460;28;20455;-75
2023/11/23 03:56:15;;;;;;;2.17;1.50;;;20.90;91.30;;;;;;5022386;28;20457;-76
2023/11/23 03:58:41;;;;;;;2.03;1.67;;;21.00;91.00;;;;;;5020907;28;20917;-73
2023/11/23 04:01:09;;;;;;;1.63;1.53;;;20.90;91.00;;;;;;5024492;28;20972;-73
2023/11/23 04:03:36;;;;;;;1.65;1.30;;;20.90;91.00;;;;;;5023038;28;20850;-72
2023/11/23 04:06:03;;;;;;;1.60;1.37;;;20.90;90.90;;;;;;5022401;28;20204;-72
2023/11/23 04:08:31;;;;;;;1.52;1.40;;;20.90;91.00;;;;;;5017649;28;20486;-71
2023/11/23 04:10:58;;;;;;;1.98;1.70;;;20.90;91.00;;;;;;5024321;28;20193;-74
2023/11/23 04:13:25;;;;;;;2.80;1.42;;;20.90;90.90;;;;;;5022695;28;20683;-72
2023/11/23 04:15:52;;;;;;;1.63;1.17;;;20.90;90.90;;;;;;5023120;28;20211;-71
2023/11/23 04:18:19;;;;;;;2.20;1.98;;;20.90;90.90;;;;;;5022636;28;20200;-71
2023/11/23 04:20:45;;;;;;;2.58;1.80;;;20.90;91.00;;;;;;5020305;28;20211;-74
2023/11/23 04:23:12;;;;;;;1.95;1.67;;;20.90;91.00;;;;;;5024058;28;20196;-72
2023/11/23 04:25:40;;;;;;;1.83;1.65;;;20.90;91.00;;;;;;5023495;28;20199;-71
2023/11/23 04:28:07;;;;;;;1.63;1.50;;;20.90;91.00;;;;;;5023823;28;20234;-72
2023/11/23 04:30:33;;;;;;;2.55;1.85;;;20.90;90.90;;;;;;5019906;28;20469;-74
2023/11/23 04:33:00;;;;;;;1.95;1.65;;;20.90;91.00;;;;;;5022715;28;20632;-73
2023/11/23 04:35:27;;;;;;;2.25;1.40;;;20.90;91.00;;;;;;5023455;28;20214;-71
2023/11/23 04:37:54;;;;;;;2.35;1.45;;;20.80;90.90;;;;;;5021847;28;20795;-74
2023/11/23 04:40:21;;;;;;;2.23;1.60;;;20.80;91.00;;;;;;5023082;28;20196;-72
2023/11/23 04:42:49;;;;;;;1.50;1.33;;;20.80;91.00;;;;;;5022750;28;20465;-76
2023/11/23 04:45:16;;;;;;;2.05;1.77;;;20.80;91.00;;;;;;5024516;28;20466;-75
2023/11/23 04:47:43;;;;;;;1.67;1.48;;;20.90;91.00;;;;;;5020395;28;20232;-74
2023/11/23 04:50:10;;;;;;;1.70;1.55;;;20.80;91.00;;;;;;5023624;28;20226;-71
2023/11/23 04:52:37;;;;;;;2.00;1.80;;;20.80;91.00;;;;;;5018715;28;20985;-72
2023/11/23 04:55:04;;;;;;;2.85;1.50;;;20.80;91.00;;;;;;5022493;28;20605;-71
2023/11/23 04:57:31;;;;;;;2.05;1.83;;;20.80;90.90;;;;;;5027025;28;20202;-71
2023/11/23 05:00:00;;;;;;;1.48;1.38;;;20.80;91.00;;;;;;5024236;28;20195;-73
2023/11/23 05:02:26;;;;;;;3.08;1.58;;;20.80;91.00;;;;;;5020523;28;20211;-75
2023/11/23 05:04:53;;;;;;;5.28;1.88;;;20.80;91.10;;;;;;5026156;28;20295;-73
2023/11/23 05:07:20;;;;;;;2.95;1.73;;;20.80;91.10;;;;;;5021678;28;20706;-74
2023/11/23 05:09:46;;;;;;;1.80;1.38;;;20.80;91.10;;;;;;5024506;28;20199;-73
2023/11/23 05:12:13;;;;;;;1.77;1.58;;;20.80;91.40;;;;;;5020731;28;20196;-73
2023/11/23 05:14:40;;;;;;;2.47;2.15;;;20.80;91.10;;;;;;5026281;28;20200;-73
2023/11/23 05:17:08;;;;;;;3.20;1.63;;;20.80;91.20;;;;;;5020460;28;20211;-73
2023/11/23 05:19:35;;;;;;;2.57;1.40;;;20.80;91.70;;;;;;5022757;28;20210;-73
2023/11/23 05:22:02;;;;;;;2.13;1.88;;;20.80;91.40;;;;;;5024631;28;20476;-73
2023/11/23 05:24:29;;;;;;;1.50;1.30;;;20.80;91.50;;;;;;5027870;28;20200;-73
2023/11/23 05:26:56;;;;;;;1.70;1.10;;;20.80;91.60;;;;;;5024351;28;20202;-72
2023/11/23 05:29:22;;;;;;;2.50;1.65;;;20.80;91.70;;;;;;5022927;28;20199;-68
2023/11/23 05:31:49;;;;;;;1.35;1.25;;;20.90;91.80;;;;;;5027181;28;20204;-69
2023/11/23 05:34:18;;;;;;;1.40;1.30;;;20.90;91.90;;;;;;5032559;28;20608;-68
2023/11/23 05:36:45;;;;;;;1.50;1.40;;;20.90;91.90;;;;;;5025241;28;20687;-70
2023/11/23 05:39:11;;;;;;;3.10;1.43;;;20.90;92.00;;;;;;5029220;28;20203;-72
2023/11/23 05:41:38;;;;;;;2.17;1.20;;;20.90;92.00;;;;;;5030880;28;20460;-70
2023/11/23 05:44:06;;;;;;;1.90;1.70;;;20.90;92.00;;;;;;5026031;28;20192;-68
2023/11/23 05:46:33;;;;;;;1.70;1.58;;;20.90;92.00;;;;;;5025803;28;20195;-69
2023/11/23 05:49:00;;;;;;;1.33;1.23;;;21.00;92.10;;;;;;5033533;28;20212;-70
2023/11/23 05:51:28;;;;;;;2.90;1.90;;;21.00;92.10;;;;;;5024983;28;20199;-69
2023/11/23 05:53:55;;;;;;;2.70;2.00;;;21.00;92.10;;;;;;5021675;28;20451;-70
2023/11/23 05:56:22;;;;;;;2.00;1.80;;;21.00;92.10;;;;;;5018619;28;20195;-71
2023/11/23 05:58:49;;;;;;;1.43;1.33;;;21.00;92.20;;;;;;5021591;28;20470;-70
2023/11/23 06:01:16;;;;;;;4.50;1.40;;;21.00;92.20;;;;;;5022798;28;20457;-69
2023/11/23 06:03:42;;;;;;;2.10;1.67;;;21.00;92.20;;;;;;5017910;28;20462;-71
2023/11/23 06:06:19;;;;;;;1.60;1.50;;;21.00;92.30;;;;;;5018518;28;20731;-72
2023/11/23 06:08:47;;;;;;;1.97;1.60;;;21.00;92.30;;;;;;5018272;28;21010;-69
2023/11/23 06:11:14;;;;;;;1.92;1.52;;;21.10;92.30;;;;;;5019650;28;20477;-69
2023/11/23 06:13:42;;;;;;;1.80;1.60;;;21.10;92.30;;;;;;5020723;28;21806;-68
2023/11/23 06:16:09;;;;;;;1.70;1.60;;;21.10;92.30;;;;;;5022298;28;20524;-70
2023/11/23 06:18:36;;;;;;;1.50;1.30;;;21.10;92.30;;;;;;5017430;28;20466;-68
2023/11/23 06:21:03;;;;;;;1.80;1.50;;;21.10;92.20;;;;;;5021062;28;20453;-69
2023/11/23 06:23:30;;;;;;;2.08;1.30;;;21.10;92.30;;;;;;5016676;28;20468;-68
2023/11/23 06:25:58;;;;;;;1.80;1.33;;;21.10;92.30;;;;;;5022033;28;20196;-66
2023/11/23 06:28:25;;;;;;;2.57;1.20;;;21.10;92.40;;;;;;5018634;28;20485;-71
2023/11/23 06:30:52;;;;;;;1.70;1.37;;;21.20;92.30;;;;;;5020419;28;21209;-68
2023/11/23 06:33:19;;;;;;;2.33;1.40;;;21.20;92.40;;;;;;5017193;28;20459;-69
2023/11/23 06:35:46;;;;;;;1.40;1.30;;;21.20;92.40;;;;;;5021092;28;20468;-76
2023/11/23 06:38:12;;;;;;;1.80;1.33;;;21.20;92.40;;;;;;5017601;28;20823;-74
2023/11/23 06:40:40;;;;;;;1.75;1.60;;;21.20;92.40;;;;;;5021693;28;20493;-74
2023/11/23 06:43:08;;;;;;;1.70;1.60;;;21.20;92.40;;;;;;5021840;28;20782;-72
2023/11/23 06:45:35;;;;;;;2.70;1.53;;;21.20;92.40;;;;;;5025648;28;20442;-74
2023/11/23 06:48:02;;;;;;;2.20;1.83;;;21.20;92.40;;;;;;5026061;28;20484;-67
2023/11/23 06:50:28;;;;;;;1.83;1.67;;;21.20;92.40;;;;;;5023748;28;20968;-72
2023/11/23 06:52:55;;;;;;;1.67;1.50;;;21.20;92.40;;;;;;5020856;28;20457;-71
2023/11/23 06:55:22;;;;;;;1.50;1.40;;;21.30;92.40;;;;;;5025071;28;20803;-72
2023/11/23 06:57:48;;;;;;;1.40;1.27;;;21.30;92.40;;;;;;5024698;28;20468;-76
2023/11/23 07:00:22;;;;;;;6.20;5.67;;;21.30;92.40;;;;;;5023577;28;20461;-75
2023/11/23 07:02:49;;;;;;;11.83;8.87;;;21.30;91.50;;;;;;5024112;28;20956;-73
2023/11/23 07:05:16;;;;;;;12.50;10.23;;;21.20;90.00;;;;;;5028901;28;20470;-78
2023/11/23 07:07:43;;;;;;;11.30;9.57;;;21.10;87.30;;;;;;5023347;28;20516;-70
2023/11/23 07:10:12;;;;;;;9.73;8.82;;;21.00;85.00;;;;;;5022433;28;20509;-69
2023/11/23 07:12:39;;;;;;;8.60;6.57;;;20.90;87.00;;;;;;5022059;28;20282;-68
2023/11/23 07:15:07;;;;;;;7.83;7.03;;;21.00;88.00;;;;;;5025877;28;20465;-68
2023/11/23 07:17:35;;;;;;;8.83;5.50;;;21.00;88.40;;;;;;5016466;28;20462;-69
2023/11/23 07:20:04;;;;;;;5.90;5.40;;;21.00;88.20;;;;;;5022242;28;20482;-68
2023/11/23 07:22:33;;;;;;;5.83;5.20;;;21.00;88.20;;;;;;5020868;28;20491;-67
2023/11/23 07:25:00;;;;;;;4.93;4.50;;;21.00;88.20;;;;;;5026465;28;20842;-69
2023/11/23 07:27:27;;;;;;;5.43;4.90;;;21.00;88.20;;;;;;5020244;28;20468;-69
2023/11/23 07:29:53;;;;;;;5.13;4.03;;;21.00;88.40;;;;;;5019362;28;20508;-66
2023/11/23 07:32:20;;;;;;;7.10;3.87;;;21.00;88.20;;;;;;5028264;28;20453;-67
2023/11/23 07:34:48;;;;;;;4.23;3.20;;;21.00;88.30;;;;;;5028907;28;20460;-68
2023/11/23 07:37:15;;;;;;;4.43;4.03;;;21.00;88.10;;;;;;5025694;28;20986;-69
2023/11/23 07:39:42;;;;;;;3.87;3.57;;;21.00;88.10;;;;;;5023402;28;20239;-69
2023/11/23 07:42:09;;;;;;;4.25;3.95;;;21.10;88.40;;;;;;5030145;28;20461;-67
2023/11/23 07:44:35;;;;;;;3.80;3.50;;;21.10;88.40;;;;;;5026076;28;20199;-65
2023/11/23 07:47:02;;;;;;;3.17;2.97;;;21.10;88.30;;;;;;5024373;28;20461;-65
2023/11/23 07:49:29;;;;;;;3.47;3.07;;;21.10;88.50;;;;;;5020439;28;20509;-70
2023/11/23 07:51:58;;;;;;;3.85;3.28;;;21.10;88.40;;;;;;5022843;28;20473;-69
2023/11/23 07:54:25;;;;;;;3.20;2.90;;;21.10;88.40;;;;;;5017178;28;20199;-68
2023/11/23 07:56:53;;;;;;;3.60;3.30;;;21.10;88.50;;;;;;5023914;28;20458;-69
2023/11/23 07:59:19;;;;;;;2.90;2.67;;;21.10;88.50;;;;;;5029089;28;20974;-69
2023/11/23 08:01:46;;;;;;;3.47;3.17;;;21.10;88.60;;;;;;5030541;28;20461;-68
2023/11/23 08:04:13;;;;;;;2.90;2.65;;;21.10;88.60;;;;;;5028962;28;20192;-65
2023/11/23 08:06:40;;;;;;;3.60;3.30;;;21.10;88.60;;;;;;5032496;28;20224;-68
2023/11/23 08:09:14;;;;;;;3.40;3.10;;;21.20;88.70;;;;;;5031455;28;20612;-70
2023/11/23 08:11:41;;;;;;;3.47;2.80;;;21.20;88.80;;;;;;5036845;28;20257;-68
2023/11/23 08:14:07;;;;;;;3.22;2.97;;;21.20;88.70;;;;;;5032912;28;20466;-66
2023/11/23 08:16:34;;;;;;;2.80;2.60;;;21.20;88.90;;;;;;5023241;28;20655;-68
2023/11/23 08:19:03;;;;;;;3.70;2.80;;;21.20;89.00;;;;;;5013375;28;20905;-69
2023/11/23 08:21:29;;;;;;;3.20;2.60;;;21.20;89.10;;;;;;5016367;28;20462;-69
2023/11/23 08:23:56;;;;;;;5.27;3.00;;;21.20;89.10;;;;;;5020585;28;20819;-69
2023/11/23 08:26:25;;;;;;;4.80;2.37;;;21.20;89.90;;;;;;5023410;28;20504;-65
2023/11/23 08:28:52;;;;;;;3.40;2.90;;;21.20;89.10;;;;;;5023947;28;20469;-68
2023/11/23 08:31:19;;;;;;;2.73;2.50;;;21.20;89.20;;;;;;5024503;28;20544;-69
2023/11/23 08:33:45;;;;;;;2.60;2.40;;;21.20;89.10;;;;;;5029992;28;21111;-69
2023/11/23 08:36:14;;;;;;;2.80;2.60;;;21.20;89.30;;;;;;5033047;28;20468;-67
2023/11/23 08:38:40;;;;;;;3.50;3.20;;;21.30;89.50;;;;;;5029092;28;21084;-68
2023/11/23 08:41:07;;;;;;;2.90;2.60;;;21.30;89.40;;;;;;5025680;28;20462;-68
2023/11/23 08:43:37;;;;;;;3.37;3.13;;;21.30;89.20;;;;;;5025049;28;20453;-66
2023/11/23 08:46:03;;;;;;;3.00;2.80;;;21.30;89.30;;;;;;5032029;28;20503;-67
2023/11/23 08:48:30;;;;;;;3.87;3.40;;;21.30;89.20;;;;;;5027782;28;20474;-66
2023/11/23 08:50:57;;;;;;;3.37;2.57;;;21.30;89.30;;;;;;5026920;28;20458;-66
2023/11/23 08:53:24;;;;;;;2.90;2.70;;;21.30;89.30;;;;;;5024687;28;20465;-67
2023/11/23 08:55:53;;;;;;;3.40;3.10;;;21.20;89.20;;;;;;5029816;28;20466;-68
2023/11/23 08:58:20;;;;;;;6.80;3.00;;;21.20;89.30;;;;;;5027905;28;20471;-68
2023/11/23 09:00:48;;;;;;;5.07;2.50;;;21.20;89.40;;;;;;5019597;28;20989;-68
2023/11/23 09:03:15;;;;;;;2.10;2.00;;;21.20;89.40;;;;;;5022198;28;20470;-67
2023/11/23 09:05:42;;;;;;;2.67;2.47;;;21.30;89.50;;;;;;5021360;28;21227;-66
2023/11/23 09:08:08;;;;;;;2.63;2.43;;;21.20;89.50;;;;;;5022405;28;21088;-67
2023/11/23 09:10:35;;;;;;;2.70;2.50;;;21.20;89.50;;;;;;5021349;28;20454;-68
2023/11/23 09:13:02;;;;;;;2.70;2.40;;;21.20;89.50;;;;;;5020416;28;20462;-70
2023/11/23 09:15:29;;;;;;;2.73;2.53;;;21.20;89.60;;;;;;5021686;28;20836;-71
2023/11/23 09:17:57;;;;;;;2.93;2.63;;;21.20;89.80;;;;;;5011729;28;20458;-70
2023/11/23 09:20:24;;;;;;;8.30;2.00;;;21.20;89.90;;;;;;5022443;28;20462;-72
2023/11/23 09:22:51;;;;;;;6.60;2.20;;;21.20;90.00;;;;;;5020098;28;21291;-72
2023/11/23 09:25:18;;;;;;;2.50;2.30;;;21.30;90.10;;;;;;5019985;28;20461;-70
2023/11/23 09:27:45;;;;;;;2.80;2.60;;;21.30;90.30;;;;;;5019961;28;20455;-70
2023/11/23 09:30:13;;;;;;;5.83;2.57;;;21.30;90.40;;;;;;5021512;28;20847;-69
2023/11/23 09:32:40;;;;;;;3.30;2.63;;;21.30;90.50;;;;;;5018910;28;20464;-74
2023/11/23 09:35:10;;;;;;;2.00;1.90;;;21.30;90.70;;;;;;5022732;28;20461;-71
2023/11/23 09:37:36;;;;;;;3.77;2.67;;;21.30;90.80;;;;;;5018559;28;20457;-76
2023/11/23 09:40:07;;;;;;;4.20;2.70;;;21.30;90.90;;;;;;5013979;28;20523;-70
2023/11/23 09:42:37;;;;;;;4.50;2.77;;;21.30;90.90;;;;;;5022399;28;21350;-71
2023/11/23 09:45:06;;;;;;;2.40;1.98;;;21.40;91.10;;;;;;5020263;28;20456;-68
2023/11/23 09:47:35;;;;;;;3.50;2.07;;;21.40;91.20;;;;;;5018265;28;20206;-67
2023/11/23 09:50:03;;;;;;;2.97;2.77;;;21.40;91.30;;;;;;5020890;28;20964;-66
2023/11/23 09:52:33;;;;;;;2.63;2.20;;;21.40;91.30;;;;;;5021157;28;20470;-68
2023/11/23 09:55:03;;;;;;;3.13;2.50;;;21.40;91.20;;;;;;5023547;28;20456;-70
2023/11/23 09:57:30;;;;;;;4.37;2.60;;;21.40;91.30;;;;;;5020494;28;20486;-70
2023/11/23 09:59:58;;;;;;;2.73;2.40;;;21.40;91.40;;;;;;5014136;28;20485;-68
2023/11/23 10:02:25;;;;;;;8.40;3.30;;;21.40;91.40;;;;;;5017938;28;20480;-68
2023/11/23 10:04:56;;;;;;;3.00;2.50;;;21.40;91.40;;;;;;5021021;28;20470;-68
2023/11/23 10:07:23;;;;;;;2.50;2.30;;;21.40;91.30;;;;;;5018459;28;20461;-69
2023/11/23 10:09:51;;;;;;;3.50;2.50;;;21.40;91.70;;;;;;5024527;28;20851;-69
2023/11/23 10:12:19;;;;;;;3.10;2.77;;;21.40;91.30;;;;;;5023295;28;20464;-69
2023/11/23 10:14:45;;;;;;;2.63;2.43;;;21.40;91.30;;;;;;5017556;28;20468;-71
2023/11/23 10:17:12;;;;;;;2.10;2.00;;;21.40;91.20;;;;;;5022716;28;21403;-68
2023/11/23 10:19:39;;;;;;;3.23;2.50;;;21.40;91.20;;;;;;5028556;28;20468;-70
2023/11/23 10:22:06;;;;;;;3.10;2.30;;;21.40;91.20;;;;;;5028246;28;20545;-71
2023/11/23 10:24:34;;;;;;;2.93;2.50;;;21.40;91.20;;;;;;5028796;28;20445;-68
2023/11/23 10:27:02;;;;;;;2.67;2.47;;;21.40;91.20;;;;;;5028785;28;20444;-69
2023/11/23 10:29:29;;;;;;;2.37;2.17;;;21.40;91.20;;;;;;5028017;28;20491;-67
2023/11/23 10:31:59;;;;;;;2.20;2.10;;;21.40;91.20;;;;;;5026181;28;20462;-70
2023/11/23 10:34:26;;;;;;;3.00;1.83;;;21.40;91.20;;;;;;5027968;28;20528;-72
2023/11/23 10:36:54;;;;;;;2.97;2.77;;;21.40;91.20;;;;;;5032623;28;20504;-71
2023/11/23 10:39:22;;;;;;;3.90;2.40;;;21.50;91.40;;;;;;5030317;28;20462;-67
2023/11/23 10:41:51;;;;;;;4.00;2.20;;;21.50;91.40;;;;;;5032498;28;20540;-69
2023/11/23 10:44:19;;;;;;;3.80;2.53;;;21.50;91.20;;;;;;5031055;28;20461;-68
2023/11/23 10:46:48;;;;;;;2.67;2.10;;;21.50;91.10;;;;;;5034823;28;20476;-70
2023/11/23 10:49:17;;;;;;;3.13;2.00;;;21.50;91.10;;;;;;5026553;28;20944;-71
2023/11/23 10:51:46;;;;;;;1.97;1.77;;;21.50;91.10;;;;;;5028076;28;20539;-72
2023/11/23 10:54:12;;;;;;;2.53;2.33;;;21.50;91.10;;;;;;5035689;28;20461;-72
2023/11/23 10:56:43;;;;;;;2.57;2.37;;;21.50;91.10;;;;;;5033560;28;20469;-72
2023/11/23 10:59:18;;;;;;;2.00;1.80;;;21.50;91.10;;;;;;5033598;28;21193;-70
2023/11/23 11:01:47;;;;;;;2.60;2.40;;;21.50;91.10;;;;;;5030789;28;20457;-71
2023/11/23 11:04:14;;;;;;;2.50;2.30;;;21.50;91.20;;;;;;5026673;28;20469;-67
2023/11/23 11:06:41;;;;;;;2.50;2.30;;;21.40;91.10;;;;;;5021493;28;20479;-68
2023/11/23 11:09:17;;;;;;;2.95;2.50;;;21.50;91.10;;;;;;5026501;28;20477;-67
2023/11/23 11:11:45;;;;;;;2.40;2.20;;;21.50;91.10;;;;;;5016258;28;20206;-69
2023/11/23 11:14:13;;;;;;;4.10;2.63;;;21.50;91.10;;;;;;5014092;28;20457;-67
2023/11/23 11:16:41;;;;;;;2.53;1.90;;;21.50;91.10;;;;;;5023575;28;20540;-70
2023/11/23 11:19:13;;;;;;;2.40;2.10;;;21.50;91.10;;;;;;5022679;28;20475;-71
2023/11/23 11:21:42;;;;;;;2.00;1.90;;;21.50;91.20;;;;;;5015743;28;20485;-71
2023/11/23 11:24:18;;;;;;;2.00;1.90;;;21.50;91.10;;;;;;5022766;28;20458;-69
2023/11/23 11:26:46;;;;;;;2.20;2.00;;;21.50;91.20;;;;;;5024153;28;20456;-69
2023/11/23 11:29:14;;;;;;;2.27;2.17;;;21.50;91.30;;;;;;5024252;28;20583;-71
2023/11/23 11:31:42;;;;;;;2.50;2.20;;;21.50;91.50;;;;;;5024005;28;20592;-72
2023/11/23 11:34:20;;;;;;;2.17;1.73;;;21.40;91.70;;;;;;5021472;28;20455;-70
2023/11/23 11:36:52;;;;;;;3.20;2.43;;;21.50;92.50;;;;;;5023109;28;20469;-70
2023/11/23 11:39:19;;;;;;;2.07;1.97;;;21.30;92.70;;;;;;5022929;28;20520;-70
2023/11/23 11:41:47;;;;;;;2.73;2.33;;;21.30;93.10;;;;;;5024705;28;20819;-70
2023/11/23 11:44:15;;;;;;;2.10;1.90;;;21.30;93.30;;;;;;5022204;28;20466;-71
2023/11/23 11:46:43;;;;;;;2.30;2.07;;;21.40;94.10;;;;;;5018763;28;20459;-70
2023/11/23 11:49:11;;;;;;;2.70;2.20;;;21.40;93.70;;;;;;5023092;28;20496;-68
2023/11/23 11:51:40;;;;;;;2.70;2.40;;;21.40;93.90;;;;;;5025330;28;20454;-73
2023/11/23 11:54:07;;;;;;;1.90;1.63;;;21.40;93.80;;;;;;5024780;28;20455;-69
2023/11/23 11:56:34;;;;;;;3.90;2.20;;;21.40;94.00;;;;;;5022029;28;20450;-69
2023/11/23 11:59:03;;;;;;;2.97;2.77;;;21.50;92.50;;;;;;5024085;28;20462;-69
2023/11/23 12:01:30;;;;;;;2.30;2.10;;;21.40;91.00;;;;;;5021226;28;20988;-74
2023/11/23 12:03:57;;;;;;;5.00;4.13;;;21.40;90.90;;;;;;5024690;28;20558;-72
2023/11/23 12:06:24;;;;;;;3.13;2.07;;;21.40;90.80;;;;;;5022447;28;20477;-72
2023/11/23 12:08:52;;;;;;;2.10;1.90;;;21.40;90.80;;;;;;5023052;28;20466;-71
2023/11/23 12:11:26;;;;;;;2.40;2.20;;;21.40;90.80;;;;;;5019620;28;20468;-73
2023/11/23 12:13:54;;;;;;;2.73;2.00;;;21.40;90.80;;;;;;5023579;28;20462;-69
2023/11/23 12:16:21;;;;;;;2.43;2.23;;;21.40;90.80;;;;;;5023943;28;20464;-70
2023/11/23 12:18:48;;;;;;;2.10;1.90;;;21.40;90.80;;;;;;5014765;28;20472;-68
2023/11/23 12:21:15;;;;;;;1.90;1.73;;;21.40;90.80;;;;;;5018798;28;20565;-71
2023/11/23 12:23:43;;;;;;;2.40;2.10;;;21.40;90.80;;;;;;5021789;28;20988;-71
2023/11/23 12:26:13;;;;;;;2.13;1.77;;;21.40;90.80;;;;;;5027400;28;20458;-68
2023/11/23 12:28:40;;;;;;;14.10;3.20;;;21.40;90.70;;;;;;5022534;28;20979;-66
2023/11/23 12:31:07;;;;;;;2.87;2.20;;;21.40;90.70;;;;;;5023684;28;20481;-70
2023/11/23 12:33:34;;;;;;;2.20;2.00;;;21.40;90.80;;;;;;5023664;28;20466;-70
2023/11/23 12:36:01;;;;;;;1.97;1.87;;;21.40;90.70;;;;;;5024895;28;21071;-70
2023/11/23 12:38:28;;;;;;;2.33;2.03;;;21.40;91.10;;;;;;5026086;28;20820;-68
2023/11/23 12:40:55;;;;;;;2.40;2.20;;;21.40;90.70;;;;;;5023490;28;20474;-68
2023/11/23 12:43:23;;;;;;;2.43;2.23;;;21.40;90.70;;;;;;5027166;28;20557;-70
2023/11/23 12:45:50;;;;;;;3.03;2.83;;;21.40;90.70;;;;;;5026507;28;20462;-69